createdAt,value
2022-11-29T00:02:19.158Z,1.80
2022-11-29T00:04:48.054Z,1.60
2022-11-29T00:07:21.475Z,1.40
2022-11-29T00:09:50.020Z,1.70
2022-11-29T00:12:22.840Z,1.50
2022-11-29T00:14:53.698Z,1.30
2022-11-29T00:17:22.154Z,1.50
2022-11-29T00:19:51.692Z,1.50
2022-11-29T00:22:27.529Z,1.80
2022-11-29T00:25:00.748Z,2.00
2022-11-29T00:27:28.295Z,1.70
2022-11-29T00:29:56.822Z,1.50
2022-11-29T00:32:24.118Z,1.50
2022-11-29T00:34:53.742Z,1.60
2022-11-29T00:37:21.394Z,1.60
2022-11-29T00:39:51.266Z,1.40
2022-11-29T00:42:21.092Z,1.50
2022-11-29T00:44:49.836Z,1.60
2022-11-29T00:47:17.930Z,2.00
2022-11-29T00:49:45.862Z,1.70
2022-11-29T00:52:14.054Z,1.70
2022-11-29T00:54:42.540Z,1.70
2022-11-29T00:57:13.644Z,1.40
2022-11-29T00:59:41.337Z,1.60
2022-11-29T01:02:09.541Z,1.80
2022-11-29T01:04:37.218Z,1.30
2022-11-29T01:07:04.920Z,1.50
2022-11-29T01:09:34.735Z,1.50
2022-11-29T01:12:02.854Z,1.60
2022-11-29T01:14:33.102Z,1.80
2022-11-29T01:17:02.650Z,1.50
2022-11-29T01:19:31.157Z,1.60
2022-11-29T01:22:03.112Z,1.50
2022-11-29T01:24:31.760Z,1.60
2022-11-29T01:26:58.819Z,1.80
2022-11-29T01:29:25.955Z,1.50
2022-11-29T01:31:55.225Z,1.40
2022-11-29T01:34:24.344Z,1.60
2022-11-29T01:36:51.551Z,1.60
2022-11-29T01:39:22.701Z,1.80
2022-11-29T01:41:59.441Z,1.60
2022-11-29T01:44:27.403Z,1.80
2022-11-29T01:46:59.261Z,1.50
2022-11-29T01:49:39.500Z,1.70
2022-11-29T01:52:29.871Z,1.50
2022-11-29T01:57:47.744Z,2.00
2022-11-29T02:00:21.375Z,1.70
2022-11-29T02:02:58.404Z,1.60
2022-11-29T02:05:29.115Z,1.50
2022-11-29T02:08:01.480Z,1.50
2022-11-29T02:10:56.418Z,1.70
2022-11-29T02:13:30.443Z,1.40
2022-11-29T02:16:13.925Z,1.60
2022-11-29T02:19:00.239Z,1.50
2022-11-29T02:21:59.120Z,1.50
2022-11-29T02:24:34.057Z,1.60
2022-11-29T02:27:44.294Z,1.60
2022-11-29T02:30:46.676Z,1.60
2022-11-29T02:34:00.728Z,2.00
2022-11-29T02:36:31.383Z,1.60
2022-11-29T02:39:22.215Z,1.60
2022-11-29T02:42:28.210Z,1.50
2022-11-29T02:45:21.403Z,1.60
2022-11-29T02:48:19.684Z,1.50
2022-11-29T02:51:16.105Z,1.80
2022-11-29T02:53:59.415Z,1.60
2022-11-29T02:57:23.742Z,1.60
2022-11-29T03:00:10.956Z,1.80
2022-11-29T03:03:10.679Z,1.70
2022-11-29T03:05:50.982Z,1.60
2022-11-29T03:08:38.437Z,1.60
2022-11-29T03:11:38.054Z,1.60
2022-11-29T03:14:28.987Z,1.70
2022-11-29T03:17:17.080Z,1.60
2022-11-29T03:20:07.635Z,1.50
2022-11-29T03:22:53.098Z,1.50
2022-11-29T03:25:29.092Z,1.50
2022-11-29T03:28:18.212Z,1.90
2022-11-29T03:34:00.469Z,1.60
2022-11-29T03:36:51.840Z,1.50
2022-11-29T03:42:25.082Z,1.90
2022-11-29T03:45:35.673Z,1.60
2022-11-29T03:48:30.848Z,1.80
2022-11-29T03:51:15.461Z,1.70
2022-11-29T03:53:57.469Z,1.80
2022-11-29T03:56:41.507Z,1.80
2022-11-29T03:59:42.561Z,1.90
2022-11-29T04:02:22.402Z,1.80
2022-11-29T04:05:08.584Z,1.70
2022-11-29T04:07:46.965Z,1.60
2022-11-29T04:10:51.456Z,1.70
2022-11-29T04:13:40.694Z,1.70
2022-11-29T04:16:26.739Z,2.10
2022-11-29T04:19:35.962Z,1.50
2022-11-29T04:22:32.899Z,1.70
2022-11-29T04:25:22.165Z,1.80
2022-11-29T04:28:20.650Z,1.90
2022-11-29T04:31:01.553Z,1.60
2022-11-29T04:33:48.067Z,1.80
2022-11-29T04:37:08.186Z,1.80
2022-11-29T04:40:15.314Z,1.70
2022-11-29T04:43:25.153Z,1.60
2022-11-29T04:46:20.999Z,1.70
2022-11-29T04:49:20.084Z,1.90
2022-11-29T04:55:54.212Z,2.00
2022-11-29T04:59:03.097Z,1.70
2022-11-29T05:02:08.074Z,1.60
2022-11-29T05:04:50.772Z,1.70
2022-11-29T05:07:43.362Z,1.70
2022-11-29T05:10:33.691Z,1.80
2022-11-29T05:13:07.341Z,1.70
2022-11-29T05:16:00.718Z,1.70
2022-11-29T05:18:47.418Z,1.70
2022-11-29T05:21:52.695Z,1.70
2022-11-29T05:24:46.156Z,1.60
2022-11-29T05:27:45.737Z,2.00
2022-11-29T05:30:23.219Z,1.70
2022-11-29T05:32:59.991Z,1.80
2022-11-29T05:35:44.739Z,1.90
2022-11-29T05:38:25.016Z,2.00
2022-11-29T05:41:17.919Z,1.60
2022-11-29T05:43:51.913Z,1.90
2022-11-29T05:46:44.450Z,1.70
2022-11-29T05:49:36.252Z,1.60
2022-11-29T05:52:42.549Z,1.90
2022-11-29T05:55:43.749Z,1.70
2022-11-29T05:58:32.828Z,1.90
2022-11-29T06:01:26.664Z,1.60
2022-11-29T06:04:14.779Z,1.80
2022-11-29T06:07:01.629Z,1.60
2022-11-29T06:09:38.258Z,1.60
2022-11-29T06:12:21.581Z,1.50
2022-11-29T06:15:17.823Z,1.50
2022-11-29T06:18:14.793Z,1.30
2022-11-29T06:20:50.770Z,1.60
2022-11-29T06:23:37.747Z,1.90
2022-11-29T06:26:24.856Z,1.40
2022-11-29T06:29:18.101Z,1.40
2022-11-29T06:31:58.004Z,1.50
2022-11-29T06:34:49.095Z,1.90
2022-11-29T06:37:45.309Z,2.00
2022-11-29T06:40:16.640Z,1.40
2022-11-29T06:42:52.400Z,1.40
2022-11-29T06:45:22.940Z,1.60
2022-11-29T06:48:03.234Z,1.60
2022-11-29T06:50:57.296Z,1.70
2022-11-29T06:53:39.006Z,1.50
2022-11-29T06:56:25.714Z,1.50
2022-11-29T06:59:26.980Z,1.60
2022-11-29T07:02:21.942Z,1.50
2022-11-29T07:05:11.357Z,1.40
2022-11-29T07:07:40.541Z,1.50
2022-11-29T07:10:18.554Z,1.60
2022-11-29T07:12:48.531Z,1.50
2022-11-29T07:15:22.007Z,1.40
2022-11-29T07:18:18.517Z,1.40
2022-11-29T07:21:22.803Z,1.50
2022-11-29T07:24:18.256Z,1.30
2022-11-29T07:27:07.417Z,1.30
2022-11-29T07:30:07.380Z,1.90
2022-11-29T07:33:30.397Z,1.40
2022-11-29T07:36:20.785Z,1.50
2022-11-29T07:39:22.558Z,1.50
2022-11-29T07:42:04.787Z,1.30
2022-11-29T07:45:00.916Z,1.70
2022-11-29T07:47:32.570Z,1.50
2022-11-29T07:52:46.828Z,1.20
2022-11-29T07:55:37.645Z,1.40
2022-11-29T07:58:08.030Z,1.90
2022-11-29T08:00:42.278Z,1.30
2022-11-29T08:03:11.715Z,1.20
2022-11-29T08:05:39.142Z,1.10
2022-11-29T08:08:12.917Z,1.10
2022-11-29T08:10:43.477Z,1.10
2022-11-29T08:13:14.835Z,1.10
2022-11-29T08:15:48.948Z,1.00
2022-11-29T08:18:19.569Z,1.30
2022-11-29T08:20:52.917Z,1.00
2022-11-29T08:23:24.211Z,1.30
2022-11-29T08:26:04.165Z,1.30
2022-11-29T08:28:31.895Z,1.00
2022-11-29T08:31:09.565Z,1.10
2022-11-29T08:33:38.887Z,1.10
2022-11-29T08:36:21.950Z,1.00
2022-11-29T08:38:50.385Z,1.10
2022-11-29T08:41:20.109Z,1.40
2022-11-29T08:43:48.458Z,1.10
2022-11-29T08:46:18.939Z,1.00
2022-11-29T08:48:48.341Z,1.10
2022-11-29T08:51:17.783Z,1.00
2022-11-29T08:53:52.982Z,1.10
2022-11-29T08:57:10.236Z,1.00
2022-11-29T08:59:13.002Z,1.10
2022-11-29T09:01:42.120Z,1.00
2022-11-29T09:04:11.209Z,0.90
2022-11-29T09:06:51.150Z,0.80
2022-11-29T09:09:19.643Z,1.10
2022-11-29T09:11:50.359Z,1.10
2022-11-29T09:14:23.256Z,1.30
2022-11-29T09:16:54.477Z,1.00
2022-11-29T09:19:27.078Z,0.90
2022-11-29T09:21:55.143Z,1.00
2022-11-29T09:24:30.449Z,1.00
2022-11-29T09:27:01.050Z,1.20
2022-11-29T09:29:32.786Z,1.00
2022-11-29T09:32:05.873Z,1.10
2022-11-29T09:34:40.639Z,0.90
2022-11-29T09:37:10.203Z,1.00
2022-11-29T09:39:38.832Z,0.90
2022-11-29T09:42:41.877Z,1.10
2022-11-29T09:45:20.784Z,1.10
2022-11-29T09:48:37.397Z,1.00
2022-11-29T09:51:18.214Z,1.20
2022-11-29T09:54:16.646Z,1.20
2022-11-29T09:56:50.692Z,0.80
2022-11-29T09:59:27.331Z,1.00
2022-11-29T10:02:20.884Z,1.40
2022-11-29T10:05:07.522Z,1.00
2022-11-29T10:07:41.153Z,1.10
2022-11-29T10:10:22.305Z,1.10
2022-11-29T10:12:58.457Z,1.00
2022-11-29T10:15:30.604Z,0.90
2022-11-29T10:18:15.735Z,1.10
2022-11-29T10:20:49.582Z,0.90
2022-11-29T10:23:36.990Z,1.00
2022-11-29T10:26:21.048Z,1.10
2022-11-29T10:28:49.618Z,1.00
2022-11-29T10:31:49.741Z,0.90
2022-11-29T10:34:25.837Z,0.90
2022-11-29T10:37:00.262Z,0.90
2022-11-29T10:39:48.801Z,0.90
2022-11-29T10:42:42.690Z,1.00
2022-11-29T10:45:34.416Z,0.90
2022-11-29T10:48:12.525Z,0.90
2022-11-29T10:50:44.611Z,0.80
2022-11-29T10:53:16.329Z,1.00
2022-11-29T10:58:35.738Z,1.00
2022-11-29T11:01:11.366Z,1.40
2022-11-29T11:03:47.913Z,1.10
2022-11-29T11:06:29.977Z,1.00
2022-11-29T11:09:23.805Z,1.20
2022-11-29T11:11:54.497Z,1.30
2022-11-29T11:20:31.577Z,1.10
2022-11-29T11:23:10.003Z,1.00
2022-11-29T11:25:40.971Z,1.00
2022-11-29T11:28:31.069Z,1.40
2022-11-29T11:31:06.464Z,0.90
2022-11-29T11:33:38.470Z,0.90
2022-11-29T11:36:29.363Z,1.10
2022-11-29T11:39:28.224Z,1.30
2022-11-29T11:42:15.601Z,0.90
2022-11-29T11:44:53.827Z,1.00
2022-11-29T11:47:31.199Z,1.00
2022-11-29T11:50:33.967Z,0.90
2022-11-29T11:53:30.803Z,0.90
2022-11-29T11:56:07.669Z,0.90
2022-11-29T11:58:43.911Z,1.00
2022-11-29T12:01:23.888Z,0.90
2022-11-29T12:04:12.644Z,1.20
2022-11-29T12:09:47.083Z,0.90
2022-11-29T12:12:16.413Z,0.90
2022-11-29T12:15:23.089Z,1.20
2022-11-29T12:18:16.526Z,1.30
2022-11-29T12:21:14.322Z,1.10
2022-11-29T12:24:04.537Z,1.20
2022-11-29T12:26:57.319Z,1.00
2022-11-29T12:29:36.205Z,1.10
2022-11-29T12:32:28.285Z,1.00
2022-11-29T12:35:21.436Z,1.00
2022-11-29T12:37:57.482Z,1.20
2022-11-29T12:40:33.685Z,0.90
2022-11-29T12:43:31.119Z,1.30
2022-11-29T12:46:26.349Z,1.10
2022-11-29T12:49:20.517Z,1.20
2022-11-29T12:51:57.601Z,1.20
2022-11-29T12:54:35.111Z,0.90
2022-11-29T12:57:12.578Z,1.00
2022-11-29T12:59:50.591Z,1.80
2022-11-29T13:03:02.877Z,2.10
2022-11-29T13:05:59.561Z,2.50
2022-11-29T13:08:42.858Z,2.80
2022-11-29T13:11:21.934Z,2.90
2022-11-29T13:14:41.720Z,2.90
2022-11-29T13:17:21.115Z,3.60
2022-11-29T13:20:00.702Z,3.80
2022-11-29T13:22:37.825Z,3.80
2022-11-29T13:25:16.665Z,3.80
2022-11-29T13:28:01.321Z,3.40
2022-11-29T13:30:29.083Z,3.00
2022-11-29T13:33:08.967Z,3.20
2022-11-29T13:35:39.293Z,3.30
2022-11-29T13:38:45.369Z,3.40
2022-11-29T13:41:31.385Z,6.50
2022-11-29T13:44:04.826Z,8.20
2022-11-29T13:47:23.012Z,8.50
2022-11-29T13:50:31.082Z,8.30
2022-11-29T13:53:26.266Z,7.60
2022-11-29T13:56:01.543Z,7.80
2022-11-29T13:58:29.803Z,7.30
2022-11-29T14:01:10.785Z,7.70
2022-11-29T14:03:49.682Z,7.30
2022-11-29T14:06:41.325Z,7.30
2022-11-29T14:09:21.088Z,7.80
2022-11-29T14:11:52.521Z,7.10
2022-11-29T14:14:27.421Z,7.10
2022-11-29T14:17:06.669Z,7.40
2022-11-29T14:19:37.883Z,7.10
2022-11-29T14:22:21.440Z,7.50
2022-11-29T14:25:08.161Z,7.00
2022-11-29T14:27:55.684Z,6.00
2022-11-29T14:30:31.794Z,6.80
2022-11-29T14:33:27.605Z,6.70
2022-11-29T14:36:11.764Z,5.70
2022-11-29T14:38:47.225Z,5.70
2022-11-29T14:41:30.529Z,6.40
2022-11-29T14:44:26.876Z,6.10
2022-11-29T14:47:25.508Z,6.00
2022-11-29T14:49:57.069Z,5.70
2022-11-29T14:52:38.723Z,6.00
2022-11-29T14:55:18.054Z,5.30
2022-11-29T14:57:51.162Z,4.50
2022-11-29T15:00:29.013Z,5.80
2022-11-29T15:03:11.278Z,4.80
2022-11-29T15:05:51.691Z,5.10
2022-11-29T15:08:20.828Z,5.00
2022-11-29T15:10:56.693Z,4.90
2022-11-29T15:13:29.212Z,4.60
2022-11-29T15:16:14.678Z,5.00
2022-11-29T15:18:52.184Z,4.50
2022-11-29T15:21:26.005Z,4.30
2022-11-29T15:24:06.186Z,4.70
2022-11-29T15:26:35.074Z,4.30
2022-11-29T15:29:19.964Z,4.10
2022-11-29T15:32:04.946Z,4.30
2022-11-29T15:34:43.133Z,4.20
2022-11-29T15:37:37.769Z,4.00
2022-11-29T15:40:32.137Z,4.50
2022-11-29T15:43:05.940Z,3.90
2022-11-29T15:45:36.520Z,4.00
2022-11-29T15:48:22.184Z,3.70
2022-11-29T15:51:17.640Z,3.90
2022-11-29T15:54:13.131Z,3.70
2022-11-29T15:56:49.564Z,4.00
2022-11-29T15:59:30.365Z,3.90
2022-11-29T16:04:47.345Z,3.70
2022-11-29T16:07:18.927Z,3.70
2022-11-29T16:09:56.281Z,3.80
2022-11-29T16:12:23.485Z,3.60
2022-11-29T16:14:57.163Z,3.40
2022-11-29T16:17:34.352Z,3.30
2022-11-29T16:20:23.956Z,3.50
2022-11-29T16:23:08.974Z,3.80
2022-11-29T16:26:12.826Z,3.40
2022-11-29T16:28:47.144Z,3.60
2022-11-29T16:31:24.226Z,3.10
2022-11-29T16:33:53.875Z,3.50
2022-11-29T16:36:32.410Z,4.10
2022-11-29T16:39:08.497Z,3.50
2022-11-29T16:41:41.115Z,3.30
2022-11-29T16:44:58.150Z,3.10
2022-11-29T16:47:27.901Z,2.90
2022-11-29T16:50:17.844Z,3.50
2022-11-29T16:52:45.891Z,3.60
2022-11-29T16:55:14.116Z,3.20
2022-11-29T16:57:42.668Z,3.30
2022-11-29T17:00:17.729Z,3.00
2022-11-29T17:02:46.179Z,2.90
2022-11-29T17:05:13.903Z,3.10
2022-11-29T17:07:42.303Z,2.90
2022-11-29T17:10:14.239Z,3.20
2022-11-29T17:12:47.639Z,3.30
2022-11-29T17:15:15.621Z,3.20
2022-11-29T17:17:44.211Z,3.10
2022-11-29T17:20:15.857Z,3.50
2022-11-29T17:22:43.328Z,2.80
2022-11-29T17:25:11.603Z,2.80
2022-11-29T17:27:40.920Z,3.00
2022-11-29T17:30:14.354Z,3.10
2022-11-29T17:32:42.380Z,2.90
2022-11-29T17:35:11.193Z,2.80
2022-11-29T17:37:38.837Z,3.00
2022-11-29T17:40:08.027Z,2.90
2022-11-29T17:42:36.530Z,2.70
2022-11-29T17:45:04.341Z,2.70
2022-11-29T17:47:32.717Z,2.90
2022-11-29T17:50:00.147Z,3.00
2022-11-29T17:52:27.065Z,2.70
2022-11-29T17:54:54.259Z,2.80
2022-11-29T17:57:23.744Z,2.70
2022-11-29T17:59:50.658Z,2.60
2022-11-29T18:02:17.698Z,2.80
2022-11-29T18:04:44.938Z,2.70
2022-11-29T18:07:13.436Z,2.80
2022-11-29T18:09:40.621Z,2.60
2022-11-29T18:12:07.664Z,2.70
2022-11-29T18:14:35.790Z,3.00
2022-11-29T18:17:04.426Z,2.70
2022-11-29T18:19:32.735Z,2.80
2022-11-29T18:22:00.156Z,2.90
2022-11-29T18:24:27.057Z,2.60
2022-11-29T18:26:54.222Z,2.70
2022-11-29T18:29:23.200Z,2.70
2022-11-29T18:31:51.663Z,2.50
2022-11-29T18:34:18.725Z,2.80
2022-11-29T18:36:47.834Z,3.00
2022-11-29T18:39:20.889Z,2.80
2022-11-29T18:41:50.168Z,2.40
2022-11-29T18:44:21.890Z,2.60
2022-11-29T18:46:49.141Z,2.80
2022-11-29T18:49:18.940Z,2.70
2022-11-29T18:51:47.732Z,3.00
2022-11-29T18:54:16.954Z,2.90
2022-11-29T18:56:46.356Z,2.90
2022-11-29T18:59:17.430Z,3.20
2022-11-29T19:01:48.741Z,3.00
2022-11-29T19:04:20.613Z,3.10
2022-11-29T19:06:52.998Z,3.30
2022-11-29T19:09:22.838Z,2.70
2022-11-29T19:12:03.443Z,2.40
2022-11-29T19:14:34.005Z,2.70
2022-11-29T19:17:00.897Z,2.60
2022-11-29T19:19:27.879Z,3.30
2022-11-29T19:21:57.788Z,3.60
2022-11-29T19:24:27.185Z,3.90
2022-11-29T19:27:37.758Z,3.70
2022-11-29T19:30:07.454Z,3.50
2022-11-29T19:32:35.123Z,3.50
2022-11-29T19:35:06.271Z,3.80
2022-11-29T19:37:34.291Z,4.00
2022-11-29T19:40:02.371Z,3.80
2022-11-29T19:42:29.397Z,4.20
2022-11-29T19:53:48.104Z,5.20
2022-11-29T19:56:17.748Z,5.70
2022-11-29T19:58:45.075Z,5.60
2022-11-29T20:01:37.865Z,6.40
2022-11-29T20:04:08.544Z,6.40
2022-11-29T20:06:39.403Z,6.40
2022-11-29T20:09:10.640Z,6.40
2022-11-29T20:11:39.135Z,6.10
2022-11-29T20:14:12.475Z,5.90
2022-11-29T20:19:53.134Z,6.70
2022-11-29T20:22:40.471Z,6.00
2022-11-29T20:28:24.792Z,6.10
2022-11-29T20:30:59.972Z,5.90
2022-11-29T20:33:33.314Z,6.30
2022-11-29T20:36:19.380Z,6.10
2022-11-29T20:38:55.561Z,5.30
2022-11-29T20:42:25.134Z,6.00
2022-11-29T20:44:54.196Z,6.00
2022-11-29T20:47:24.043Z,5.50
2022-11-29T20:49:54.933Z,5.70
2022-11-29T20:52:32.836Z,5.40
2022-11-29T20:55:01.018Z,5.50
2022-11-29T20:57:30.521Z,5.10
2022-11-29T21:00:00.201Z,5.50
2022-11-29T21:02:30.113Z,5.00
2022-11-29T21:05:01.104Z,5.20
2022-11-29T21:08:12.851Z,5.10
2022-11-29T21:11:36.932Z,5.20
2022-11-29T21:14:16.988Z,4.80
2022-11-29T21:16:45.146Z,4.90
2022-11-29T21:19:21.348Z,4.70
2022-11-29T21:22:03.433Z,4.80
2022-11-29T21:24:39.320Z,4.50
2022-11-29T21:27:13.740Z,4.40
2022-11-29T21:29:44.110Z,4.60
2022-11-29T21:32:22.342Z,4.70
2022-11-29T21:34:49.993Z,4.30
2022-11-29T21:37:21.009Z,4.70
2022-11-29T21:39:51.914Z,4.40
2022-11-29T21:42:21.527Z,4.60
2022-11-29T21:44:49.682Z,4.50
2022-11-29T21:47:17.170Z,5.00
2022-11-29T21:49:48.813Z,4.30
2022-11-29T21:52:21.947Z,4.00
2022-11-29T21:54:52.561Z,4.20
2022-11-29T21:57:22.319Z,4.60
2022-11-29T21:59:50.046Z,4.30
2022-11-29T22:05:43.905Z,4.00
2022-11-29T22:08:35.123Z,3.90
2022-11-29T22:11:07.936Z,4.10
2022-11-29T22:13:37.413Z,3.40
2022-11-29T22:16:13.182Z,4.10
2022-11-29T22:18:40.404Z,4.10
2022-11-29T22:21:08.744Z,3.90
2022-11-29T22:23:35.825Z,3.80
2022-11-29T22:26:06.016Z,3.80
2022-11-29T22:28:34.531Z,3.80
2022-11-29T22:31:18.178Z,3.80
2022-11-29T22:33:45.810Z,3.60
2022-11-29T22:36:13.652Z,3.60
2022-11-29T22:38:40.921Z,4.00
2022-11-29T22:41:10.949Z,4.00
2022-11-29T22:43:40.286Z,3.80
2022-11-29T22:46:08.798Z,3.80
2022-11-29T22:48:41.485Z,3.80
2022-11-29T22:51:18.082Z,3.50
2022-11-29T22:53:51.715Z,3.70
2022-11-29T22:56:21.450Z,3.60
2022-11-29T22:58:49.744Z,3.30
2022-11-29T23:01:19.950Z,3.40
2022-11-29T23:03:58.706Z,3.60
2022-11-29T23:06:31.641Z,3.80
2022-11-29T23:10:13.152Z,3.60
2022-11-29T23:13:28.725Z,3.30
2022-11-29T23:21:48.869Z,3.70
2022-11-29T23:24:16.732Z,3.40
2022-11-29T23:30:33.234Z,3.40
2022-11-29T23:33:00.925Z,3.20
2022-11-29T23:35:29.853Z,3.30
2022-11-29T23:37:56.757Z,3.80
2022-11-29T23:40:24.870Z,3.30
2022-11-29T23:55:13.048Z,3.00
2022-11-29T23:57:41.044Z,3.10
